sensor_id;sensor_type;location;lat;lon;timestamp;pressure;altitude;pressure_sealevel;temperature;humidity
16355;BME280;8287;51.644;8.494;2023-05-11T00:01:30;100160.66;;;15.97;99.41
16355;BME280;8287;51.644;8.494;2023-05-11T00:03:57;100165.19;;;15.97;99.67
16355;BME280;8287;51.644;8.494;2023-05-11T00:06:23;100160.19;;;15.95;99.49
16355;BME280;8287;51.644;8.494;2023-05-11T00:08:51;100161.44;;;15.70;100.00
16355;BME280;8287;51.644;8.494;2023-05-11T00:11:18;100160.06;;;15.61;100.00
16355;BME280;8287;51.644;8.494;2023-05-11T00:13:45;100157.22;;;15.69;100.00
16355;BME280;8287;51.644;8.494;2023-05-11T00:16:12;100154.75;;;15.76;100.00
16355;BME280;8287;51.644;8.494;2023-05-11T00:18:39;100148.03;;;15.82;100.00
16355;BME280;8287;51.644;8.494;2023-05-11T00:21:05;100157.06;;;15.78;100.00
16355;BME280;8287;51.644;8.494;2023-05-11T00:23:32;100148.69;;;15.79;100.00
16355;BME280;8287;51.644;8.494;2023-05-11T00:26:00;100154.66;;;15.88;100.00
16355;BME280;8287;51.644;8.494;2023-05-11T00:28:26;100157.16;;;15.81;100.00
16355;BME280;8287;51.644;8.494;2023-05-11T00:30:54;100151.25;;;15.60;100.00
16355;BME280;8287;51.644;8.494;2023-05-11T00:33:21;100152.03;;;15.61;100.00
16355;BME280;8287;51.644;8.494;2023-05-11T00:35:48;100148.34;;;15.65;100.00
16355;BME280;8287;51.644;8.494;2023-05-11T00:38:14;100159.03;;;15.65;100.00
16355;BME280;8287;51.644;8.494;2023-05-11T00:40:41;100154.13;;;15.67;100.00
16355;BME280;8287;51.644;8.494;2023-05-11T00:43:09;100155.34;;;15.70;100.00
16355;BME280;8287;51.644;8.494;2023-05-11T00:45:36;100153.44;;;15.70;100.00
16355;BME280;8287;51.644;8.494;2023-05-11T00:48:04;100151.38;;;15.79;100.00
16355;BME280;8287;51.644;8.494;2023-05-11T00:50:31;100151.81;;;15.81;100.00
16355;BME280;8287;51.644;8.494;2023-05-11T00:52:57;100146.66;;;15.88;100.00
16355;BME280;8287;51.644;8.494;2023-05-11T00:55:25;100149.78;;;15.90;100.00
16355;BME280;8287;51.644;8.494;2023-05-11T00:57:52;100155.13;;;15.90;100.00
16355;BME280;8287;51.644;8.494;2023-05-11T01:00:20;100147.44;;;15.89;100.00
16355;BME280;8287;51.644;8.494;2023-05-11T01:02:47;100146.41;;;15.93;100.00
16355;BME280;8287;51.644;8.494;2023-05-11T01:05:14;100149.25;;;15.85;100.00
16355;BME280;8287;51.644;8.494;2023-05-11T01:07:47;100149.50;;;15.95;100.00
16355;BME280;8287;51.644;8.494;2023-05-11T01:10:22;100156.16;;;15.86;100.00
16355;BME280;8287;51.644;8.494;2023-05-11T01:12:58;100149.81;;;15.78;100.00
16355;BME280;8287;51.644;8.494;2023-05-11T01:15:32;100154.59;;;15.85;100.00
16355;BME280;8287;51.644;8.494;2023-05-11T01:18:09;100148.97;;;15.90;100.00
16355;BME280;8287;51.644;8.494;2023-05-11T01:20:37;100150.53;;;15.91;100.00
16355;BME280;8287;51.644;8.494;2023-05-11T01:23:36;100156.34;;;15.93;100.00
16355;BME280;8287;51.644;8.494;2023-05-11T01:26:14;100147.34;;;15.85;100.00
16355;BME280;8287;51.644;8.494;2023-05-11T01:29:02;100152.88;;;15.92;100.00
16355;BME280;8287;51.644;8.494;2023-05-11T01:31:37;100151.41;;;15.95;100.00
16355;BME280;8287;51.644;8.494;2023-05-11T01:34:09;100148.94;;;16.02;99.70
16355;BME280;8287;51.644;8.494;2023-05-11T01:36:41;100148.94;;;16.02;99.50
16355;BME280;8287;51.644;8.494;2023-05-11T01:39:10;100152.34;;;16.02;99.32
16355;BME280;8287;51.644;8.494;2023-05-11T01:41:40;100154.38;;;16.05;98.79
16355;BME280;8287;51.644;8.494;2023-05-11T01:44:11;100150.91;;;16.05;99.20
16355;BME280;8287;51.644;8.494;2023-05-11T01:46:40;100157.38;;;16.04;99.26
16355;BME280;8287;51.644;8.494;2023-05-11T01:49:07;100152.03;;;16.04;98.86
16355;BME280;8287;51.644;8.494;2023-05-11T01:51:36;100152.34;;;16.02;98.95
16355;BME280;8287;51.644;8.494;2023-05-11T01:54:05;100166.59;;;16.06;98.60
16355;BME280;8287;51.644;8.494;2023-05-11T01:56:34;100163.94;;;16.06;99.05
16355;BME280;8287;51.644;8.494;2023-05-11T01:59:01;100163.94;;;16.06;98.87
16355;BME280;8287;51.644;8.494;2023-05-11T02:01:29;100160.13;;;16.07;98.91
16355;BME280;8287;51.644;8.494;2023-05-11T02:04:01;100173.13;;;16.09;99.37
16355;BME280;8287;51.644;8.494;2023-05-11T02:06:29;100165.81;;;16.06;99.56
16355;BME280;8287;51.644;8.494;2023-05-11T02:08:59;100163.94;;;16.06;99.33
16355;BME280;8287;51.644;8.494;2023-05-11T02:11:28;100160.66;;;15.97;100.00
16355;BME280;8287;51.644;8.494;2023-05-11T02:13:57;100166.59;;;16.06;100.00
16355;BME280;8287;51.644;8.494;2023-05-11T02:16:24;100163.47;;;16.04;99.83
16355;BME280;8287;51.644;8.494;2023-05-11T02:18:54;100168.56;;;16.09;99.23
16355;BME280;8287;51.644;8.494;2023-05-11T02:21:25;100164.03;;;16.10;99.30
16355;BME280;8287;51.644;8.494;2023-05-11T02:23:53;100165.91;;;16.09;99.54
16355;BME280;8287;51.644;8.494;2023-05-11T02:26:20;100160.66;;;15.97;100.00
16355;BME280;8287;51.644;8.494;2023-05-11T02:28:46;100166.66;;;15.94;100.00
16355;BME280;8287;51.644;8.494;2023-05-11T02:31:16;100165.28;;;16.00;100.00
16355;BME280;8287;51.644;8.494;2023-05-11T02:33:47;100157.69;;;16.02;100.00
16355;BME280;8287;51.644;8.494;2023-05-11T02:36:16;100168.41;;;16.02;100.00
16355;BME280;8287;51.644;8.494;2023-05-11T02:38:47;100166.66;;;15.94;100.00
16355;BME280;8287;51.644;8.494;2023-05-11T02:41:17;100164.34;;;15.93;100.00
16355;BME280;8287;51.644;8.494;2023-05-11T02:43:48;100162.63;;;16.00;100.00
16355;BME280;8287;51.644;8.494;2023-05-11T02:46:20;100163.75;;;15.99;100.00
16355;BME280;8287;51.644;8.494;2023-05-11T02:48:51;100157.88;;;15.94;100.00
16355;BME280;8287;51.644;8.494;2023-05-11T02:51:23;100167.03;;;15.93;100.00
16355;BME280;8287;51.644;8.494;2023-05-11T02:53:55;100165.19;;;15.81;100.00
16355;BME280;8287;51.644;8.494;2023-05-11T02:56:23;100166.16;;;15.61;100.00
16355;BME280;8287;51.644;8.494;2023-05-11T02:58:50;100158.09;;;15.73;100.00
16355;BME280;8287;51.644;8.494;2023-05-11T03:01:17;100164.16;;;15.86;100.00
16355;BME280;8287;51.644;8.494;2023-05-11T03:03:43;100167.53;;;15.98;100.00
16355;BME280;8287;51.644;8.494;2023-05-11T03:06:10;100164.16;;;16.01;100.00
16355;BME280;8287;51.644;8.494;2023-05-11T03:08:37;100174.16;;;16.04;100.00
16355;BME280;8287;51.644;8.494;2023-05-11T03:11:05;100169.53;;;16.01;99.90
16355;BME280;8287;51.644;8.494;2023-05-11T03:13:32;100171.06;;;16.02;100.00
16355;BME280;8287;51.644;8.494;2023-05-11T03:15:59;100171.34;;;15.97;100.00
16355;BME280;8287;51.644;8.494;2023-05-11T03:18:28;100170.44;;;15.78;100.00
16355;BME280;8287;51.644;8.494;2023-05-11T03:20:56;100170.06;;;15.79;100.00
16355;BME280;8287;51.644;8.494;2023-05-11T03:23:23;100176.59;;;15.94;100.00
16355;BME280;8287;51.644;8.494;2023-05-11T03:25:50;100170.97;;;15.99;100.00
16355;BME280;8287;51.644;8.494;2023-05-11T03:28:19;100166.94;;;16.05;100.00
16355;BME280;8287;51.644;8.494;2023-05-11T03:30:48;100157.47;;;16.07;99.67
16355;BME280;8287;51.644;8.494;2023-05-11T03:33:16;100171.69;;;16.11;98.96
16355;BME280;8287;51.644;8.494;2023-05-11T03:35:44;100163.94;;;16.06;99.59
16355;BME280;8287;51.644;8.494;2023-05-11T03:38:11;100164.69;;;16.07;99.82
16355;BME280;8287;51.644;8.494;2023-05-11T03:40:41;100169.38;;;16.10;100.00
16355;BME280;8287;51.644;8.494;2023-05-11T03:43:10;100164.44;;;16.12;99.43
16355;BME280;8287;51.644;8.494;2023-05-11T03:45:40;100166.00;;;16.13;99.47
16355;BME280;8287;51.644;8.494;2023-05-11T03:48:08;100157.88;;;16.09;99.47
16355;BME280;8287;51.644;8.494;2023-05-11T03:50:37;100162.44;;;16.09;99.46
16355;BME280;8287;51.644;8.494;2023-05-11T03:53:04;100162.81;;;16.07;100.00
16355;BME280;8287;51.644;8.494;2023-05-11T03:55:31;100162.00;;;16.07;100.00
16355;BME280;8287;51.644;8.494;2023-05-11T03:57:57;100169.69;;;16.08;100.00
16355;BME280;8287;51.644;8.494;2023-05-11T04:00:24;100173.22;;;16.12;100.00
16355;BME280;8287;51.644;8.494;2023-05-11T04:02:53;100175.56;;;16.14;99.45
16355;BME280;8287;51.644;8.494;2023-05-11T04:05:20;100162.09;;;16.10;99.55
16355;BME280;8287;51.644;8.494;2023-05-11T04:07:46;100165.22;;;16.12;99.58
16355;BME280;8287;51.644;8.494;2023-05-11T04:10:13;100166.75;;;16.13;99.41
16355;BME280;8287;51.644;8.494;2023-05-11T04:12:39;100162.53;;;16.12;99.30
16355;BME280;8287;51.644;8.494;2023-05-11T04:15:07;100167.22;;;16.15;99.27
16355;BME280;8287;51.644;8.494;2023-05-11T04:17:33;100170.13;;;16.10;99.55
16355;BME280;8287;51.644;8.494;2023-05-11T04:20:01;100175.75;;;16.05;100.00
16355;BME280;8287;51.644;8.494;2023-05-11T04:22:28;100171.16;;;16.06;100.00
16355;BME280;8287;51.644;8.494;2023-05-11T04:24:55;100171.25;;;16.09;99.75
16355;BME280;8287;51.644;8.494;2023-05-11T04:27:21;100164.88;;;16.14;99.24
16355;BME280;8287;51.644;8.494;2023-05-11T04:29:48;100170.13;;;16.10;99.28
16355;BME280;8287;51.644;8.494;2023-05-11T04:32:15;100179.38;;;16.13;99.35
16355;BME280;8287;51.644;8.494;2023-05-11T04:34:41;100173.59;;;16.11;99.05
16355;BME280;8287;51.644;8.494;2023-05-11T04:37:09;100179.69;;;16.11;98.89
16355;BME280;8287;51.644;8.494;2023-05-11T04:39:36;100172.72;;;16.07;99.17
16355;BME280;8287;51.644;8.494;2023-05-11T04:42:03;100178.41;;;16.05;99.61
16355;BME280;8287;51.644;8.494;2023-05-11T04:44:29;100176.84;;;16.04;99.48
16355;BME280;8287;51.644;8.494;2023-05-11T04:46:56;100179.19;;;16.06;99.31
16355;BME280;8287;51.644;8.494;2023-05-11T04:49:22;100179.09;;;16.02;99.38
16355;BME280;8287;51.644;8.494;2023-05-11T04:51:49;100177.63;;;16.05;99.35
16355;BME280;8287;51.644;8.494;2023-05-11T04:54:17;100177.97;;;16.03;99.69
16355;BME280;8287;51.644;8.494;2023-05-11T04:56:44;100184.44;;;16.02;99.54
16355;BME280;8287;51.644;8.494;2023-05-11T04:59:10;100178.66;;;16.00;100.00
16355;BME280;8287;51.644;8.494;2023-05-11T05:01:37;100177.00;;;15.96;100.00
16355;BME280;8287;51.644;8.494;2023-05-11T05:04:03;100186.25;;;15.98;99.63
16355;BME280;8287;51.644;8.494;2023-05-11T05:06:30;100193.16;;;15.99;100.00
16355;BME280;8287;51.644;8.494;2023-05-11T05:08:58;100194.28;;;15.98;99.87
16355;BME280;8287;51.644;8.494;2023-05-11T05:11:26;100196.16;;;15.98;100.00
16355;BME280;8287;51.644;8.494;2023-05-11T05:13:53;100195.38;;;15.97;100.00
16355;BME280;8287;51.644;8.494;2023-05-11T05:16:20;100199.50;;;15.95;100.00
16355;BME280;8287;51.644;8.494;2023-05-11T05:18:46;100198.06;;;15.97;99.91
16355;BME280;8287;51.644;8.494;2023-05-11T05:21:13;100199.50;;;15.95;99.97
16355;BME280;8287;51.644;8.494;2023-05-11T05:23:39;100200.88;;;15.89;100.00
16355;BME280;8287;51.644;8.494;2023-05-11T05:26:06;100202.94;;;15.95;100.00
16355;BME280;8287;51.644;8.494;2023-05-11T05:28:34;100204.75;;;15.91;100.00
16355;BME280;8287;51.644;8.494;2023-05-11T05:31:01;100205.19;;;15.93;99.74
16355;BME280;8287;51.644;8.494;2023-05-11T05:33:27;100211.66;;;15.92;99.09
16355;BME280;8287;51.644;8.494;2023-05-11T05:35:54;100211.56;;;15.89;99.17
16355;BME280;8287;51.644;8.494;2023-05-11T05:38:20;100212.69;;;15.88;98.28
16355;BME280;8287;51.644;8.494;2023-05-11T05:40:47;100209.50;;;15.82;98.49
16355;BME280;8287;51.644;8.494;2023-05-11T05:43:13;100210.59;;;15.81;98.53
16355;BME280;8287;51.644;8.494;2023-05-11T05:45:41;100211.28;;;15.78;98.56
16355;BME280;8287;51.644;8.494;2023-05-11T05:48:08;100216.63;;;15.78;98.90
16355;BME280;8287;51.644;8.494;2023-05-11T05:50:34;100219.75;;;15.80;98.89
16355;BME280;8287;51.644;8.494;2023-05-11T05:53:01;100215.16;;;15.81;99.54
16355;BME280;8287;51.644;8.494;2023-05-11T05:55:27;100224.41;;;15.83;98.79
16355;BME280;8287;51.644;8.494;2023-05-11T05:57:54;100221.28;;;15.81;98.99
16355;BME280;8287;51.644;8.494;2023-05-11T06:00:21;100219.81;;;15.84;98.80
16355;BME280;8287;51.644;8.494;2023-05-11T06:02:49;100219.06;;;15.83;98.98
16355;BME280;8287;51.644;8.494;2023-05-11T06:05:15;100226.75;;;15.85;99.37
16355;BME280;8287;51.644;8.494;2023-05-11T06:07:42;100223.28;;;15.84;99.22
16355;BME280;8287;51.644;8.494;2023-05-11T06:10:08;100222.94;;;15.86;99.07
16355;BME280;8287;51.644;8.494;2023-05-11T06:12:35;100232.94;;;15.89;98.67
16355;BME280;8287;51.644;8.494;2023-05-11T06:15:02;100232.94;;;15.89;98.79
16355;BME280;8287;51.644;8.494;2023-05-11T06:17:28;100237.50;;;15.88;98.74
16355;BME280;8287;51.644;8.494;2023-05-11T06:19:56;100228.38;;;15.89;99.16
16355;BME280;8287;51.644;8.494;2023-05-11T06:22:23;100228.38;;;15.89;99.04
16355;BME280;8287;51.644;8.494;2023-05-11T06:24:50;100226.56;;;15.93;98.96
16355;BME280;8287;51.644;8.494;2023-05-11T06:27:16;100232.00;;;15.97;99.24
16355;BME280;8287;51.644;8.494;2023-05-11T06:29:43;100236.56;;;15.96;98.87
16355;BME280;8287;51.644;8.494;2023-05-11T06:32:10;100236.13;;;15.94;98.68
16355;BME280;8287;51.644;8.494;2023-05-11T06:34:36;100239.25;;;15.96;99.25
16355;BME280;8287;51.644;8.494;2023-05-11T06:37:04;100237.78;;;15.99;98.56
16355;BME280;8287;51.644;8.494;2023-05-11T06:39:34;100239.44;;;16.03;98.72
16355;BME280;8287;51.644;8.494;2023-05-11T06:42:02;100234.09;;;16.03;98.69
16355;BME280;8287;51.644;8.494;2023-05-11T06:44:29;100239.97;;;16.09;98.50
16355;BME280;8287;51.644;8.494;2023-05-11T06:46:55;100232.72;;;16.09;98.80
16355;BME280;8287;51.644;8.494;2023-05-11T06:49:22;100228.75;;;16.03;98.33
16355;BME280;8287;51.644;8.494;2023-05-11T06:51:51;100238.06;;;16.09;98.43
16355;BME280;8287;51.644;8.494;2023-05-11T06:54:19;100237.28;;;16.09;98.69
16355;BME280;8287;51.644;8.494;2023-05-11T06:56:45;100241.59;;;16.13;98.42
16355;BME280;8287;51.644;8.494;2023-05-11T06:59:12;100238.28;;;16.16;98.52
16355;BME280;8287;51.644;8.494;2023-05-11T07:01:39;100249.38;;;16.18;98.49
16355;BME280;8287;51.644;8.494;2023-05-11T07:04:05;100244.03;;;16.18;97.77
16355;BME280;8287;51.644;8.494;2023-05-11T07:06:32;100239.03;;;16.17;97.76
16355;BME280;8287;51.644;8.494;2023-05-11T07:08:58;100233.34;;;16.18;97.85
16355;BME280;8287;51.644;8.494;2023-05-11T07:11:26;100232.66;;;16.21;98.02
16355;BME280;8287;51.644;8.494;2023-05-11T07:13:53;100235.50;;;16.28;97.72
16355;BME280;8287;51.644;8.494;2023-05-11T07:16:20;100241.84;;;16.36;97.67
16355;BME280;8287;51.644;8.494;2023-05-11T07:18:47;100235.03;;;16.38;97.71
16355;BME280;8287;51.644;8.494;2023-05-11T07:21:14;100236.25;;;16.41;97.72
16355;BME280;8287;51.644;8.494;2023-05-11T07:23:40;100249.72;;;16.44;97.46
16355;BME280;8287;51.644;8.494;2023-05-11T07:26:07;100238.34;;;16.47;97.07
16355;BME280;8287;51.644;8.494;2023-05-11T07:28:35;100243.69;;;16.47;97.13
16355;BME280;8287;51.644;8.494;2023-05-11T07:31:01;100238.41;;;16.51;96.67
16355;BME280;8287;51.644;8.494;2023-05-11T07:33:28;100248.50;;;16.57;96.99
16355;BME280;8287;51.644;8.494;2023-05-11T07:35:55;100247.13;;;16.63;96.88
16355;BME280;8287;51.644;8.494;2023-05-11T07:38:22;100251.78;;;16.66;97.86
16355;BME280;8287;51.644;8.494;2023-05-11T07:40:48;100246.06;;;16.67;96.52
16355;BME280;8287;51.644;8.494;2023-05-11T07:43:15;100241.09;;;16.66;95.63
16355;BME280;8287;51.644;8.494;2023-05-11T07:45:43;100247.81;;;16.75;95.47
16355;BME280;8287;51.644;8.494;2023-05-11T07:48:09;100240.91;;;16.74;95.83
16355;BME280;8287;51.644;8.494;2023-05-11T07:50:36;100243.75;;;16.81;95.64
16355;BME280;8287;51.644;8.494;2023-05-11T07:53:02;100244.00;;;16.92;95.95
16355;BME280;8287;51.644;8.494;2023-05-11T07:55:29;100246.19;;;16.86;94.99
16355;BME280;8287;51.644;8.494;2023-05-11T07:57:56;100245.56;;;16.93;94.96
16355;BME280;8287;51.644;8.494;2023-05-11T08:00:22;100247.09;;;16.94;95.46
16355;BME280;8287;51.644;8.494;2023-05-11T08:02:51;100241.91;;;17.01;94.89
16355;BME280;8287;51.644;8.494;2023-05-11T08:05:18;100236.97;;;17.03;94.91
16355;BME280;8287;51.644;8.494;2023-05-11T08:07:45;100234.66;;;17.01;94.24
16355;BME280;8287;51.644;8.494;2023-05-11T08:10:12;100233.88;;;17.01;94.56
16355;BME280;8287;51.644;8.494;2023-05-11T08:12:39;100254.09;;;16.98;94.16
16355;BME280;8287;51.644;8.494;2023-05-11T08:15:06;100244.34;;;17.06;94.18
16355;BME280;8287;51.644;8.494;2023-05-11T08:17:33;100247.34;;;17.04;93.41
16355;BME280;8287;51.644;8.494;2023-05-11T08:20:01;100244.47;;;17.13;92.50
16355;BME280;8287;51.644;8.494;2023-05-11T08:22:28;100252.94;;;17.15;92.97
16355;BME280;8287;51.644;8.494;2023-05-11T08:24:55;100248.00;;;17.17;92.28
16355;BME280;8287;51.644;8.494;2023-05-11T08:27:21;100253.78;;;17.19;92.20
16355;BME280;8287;51.644;8.494;2023-05-11T08:29:48;100246.72;;;17.11;92.02
16355;BME280;8287;51.644;8.494;2023-05-11T08:32:15;100257.94;;;17.16;90.86
16355;BME280;8287;51.644;8.494;2023-05-11T08:34:42;100253.25;;;17.29;91.33
16355;BME280;8287;51.644;8.494;2023-05-11T08:37:10;100244.16;;;17.33;92.86
16355;BME280;8287;51.644;8.494;2023-05-11T08:39:37;100250.50;;;17.41;91.20
16355;BME280;8287;51.644;8.494;2023-05-11T08:42:04;100254.00;;;17.45;91.38
16355;BME280;8287;51.644;8.494;2023-05-11T08:44:33;100253.66;;;17.46;90.72
16355;BME280;8287;51.644;8.494;2023-05-11T08:47:02;100248.22;;;17.43;90.51
16355;BME280;8287;51.644;8.494;2023-05-11T08:49:30;100246.34;;;17.43;90.86
16355;BME280;8287;51.644;8.494;2023-05-11T08:51:56;100247.25;;;17.51;90.97
16355;BME280;8287;51.644;8.494;2023-05-11T08:54:25;100252.75;;;17.58;90.32
16355;BME280;8287;51.644;8.494;2023-05-11T08:56:52;100251.63;;;17.59;90.05
16355;BME280;8287;51.644;8.494;2023-05-11T08:59:19;100249.94;;;17.51;89.46
16355;BME280;8287;51.644;8.494;2023-05-11T09:01:46;100249.38;;;17.61;90.16
16355;BME280;8287;51.644;8.494;2023-05-11T09:04:13;100255.72;;;17.72;90.05
16355;BME280;8287;51.644;8.494;2023-05-11T09:06:42;100251.28;;;17.79;90.87
16355;BME280;8287;51.644;8.494;2023-05-11T09:09:09;100253.31;;;17.86;90.09
16355;BME280;8287;51.644;8.494;2023-05-11T09:11:37;100256.41;;;17.88;89.56
16355;BME280;8287;51.644;8.494;2023-05-11T09:14:04;100255.25;;;17.85;88.67
16355;BME280;8287;51.644;8.494;2023-05-11T09:16:31;100255.63;;;17.68;87.62
16355;BME280;8287;51.644;8.494;2023-05-11T09:18:59;100259.09;;;17.69;88.11
16355;BME280;8287;51.644;8.494;2023-05-11T09:21:26;100258.91;;;17.77;89.93
16355;BME280;8287;51.644;8.494;2023-05-11T09:23:54;100257.00;;;17.78;89.41
16355;BME280;8287;51.644;8.494;2023-05-11T09:26:23;100247.75;;;17.75;89.22
16355;BME280;8287;51.644;8.494;2023-05-11T09:28:53;100252.91;;;17.84;89.83
16355;BME280;8287;51.644;8.494;2023-05-11T09:31:37;100260.53;;;17.82;89.77
16355;BME280;8287;51.644;8.494;2023-05-11T09:34:08;100257.41;;;17.80;88.78
16355;BME280;8287;51.644;8.494;2023-05-11T09:36:35;100259.66;;;17.78;88.98
16355;BME280;8287;51.644;8.494;2023-05-11T09:39:02;100256.56;;;17.76;88.92
16355;BME280;8287;51.644;8.494;2023-05-11T09:41:29;100258.25;;;17.84;88.80
16355;BME280;8287;51.644;8.494;2023-05-11T09:44:07;100248.59;;;17.98;89.36
16355;BME280;8287;51.644;8.494;2023-05-11T09:46:35;100254.63;;;18.14;89.51
16355;BME280;8287;51.644;8.494;2023-05-11T09:49:02;100254.91;;;18.28;90.37
16355;BME280;8287;51.644;8.494;2023-05-11T09:51:31;100254.84;;;18.25;88.66
16355;BME280;8287;51.644;8.494;2023-05-11T09:53:58;100261.25;;;18.20;88.08
16355;BME280;8287;51.644;8.494;2023-05-11T09:56:44;100252.38;;;18.16;88.62
16355;BME280;8287;51.644;8.494;2023-05-11T09:59:14;100246.78;;;18.25;89.61
16355;BME280;8287;51.644;8.494;2023-05-11T10:01:41;100250.66;;;18.27;88.48
16355;BME280;8287;51.644;8.494;2023-05-11T10:04:08;100257.56;;;18.28;88.15
16355;BME280;8287;51.644;8.494;2023-05-11T10:06:46;100251.44;;;18.28;87.68
16355;BME280;8287;51.644;8.494;2023-05-11T10:09:14;100254.56;;;18.30;88.62
16355;BME280;8287;51.644;8.494;2023-05-11T10:11:43;100252.66;;;18.11;85.85
16355;BME280;8287;51.644;8.494;2023-05-11T10:14:12;100253.44;;;18.12;86.25
16355;BME280;8287;51.644;8.494;2023-05-11T10:16:41;100259.66;;;18.16;87.05
16355;BME280;8287;51.644;8.494;2023-05-11T10:19:09;100249.34;;;18.18;88.22
16355;BME280;8287;51.644;8.494;2023-05-11T10:21:36;100257.38;;;18.18;88.81
16355;BME280;8287;51.644;8.494;2023-05-11T10:24:03;100250.06;;;18.15;88.17
16355;BME280;8287;51.644;8.494;2023-05-11T10:26:31;100249.63;;;18.13;90.42
16355;BME280;8287;51.644;8.494;2023-05-11T10:28:59;100241.41;;;18.25;88.99
16355;BME280;8287;51.644;8.494;2023-05-11T10:31:27;100253.56;;;18.19;87.13
16355;BME280;8287;51.644;8.494;2023-05-11T10:33:54;100241.03;;;18.26;88.44
16355;BME280;8287;51.644;8.494;2023-05-11T10:36:22;100246.78;;;18.25;88.02
16355;BME280;8287;51.644;8.494;2023-05-11T10:38:48;100242.56;;;18.24;88.00
16355;BME280;8287;51.644;8.494;2023-05-11T10:41:24;100242.25;;;18.29;88.45
16355;BME280;8287;51.644;8.494;2023-05-11T10:44:16;100253.28;;;18.24;87.95
16355;BME280;8287;51.644;8.494;2023-05-11T10:47:08;100243.31;;;18.24;88.56
16355;BME280;8287;51.644;8.494;2023-05-11T10:49:53;100244.38;;;18.20;88.42
16355;BME280;8287;51.644;8.494;2023-05-11T10:52:45;100257.72;;;18.16;87.95
16355;BME280;8287;51.644;8.494;2023-05-11T10:55:21;100243.97;;;18.18;88.78
16355;BME280;8287;51.644;8.494;2023-05-11T10:58:05;100247.47;;;18.22;89.30
16355;BME280;8287;51.644;8.494;2023-05-11T11:01:05;100237.47;;;18.19;89.17
16355;BME280;8287;51.644;8.494;2023-05-11T11:03:39;100238.28;;;18.23;90.18
16355;BME280;8287;51.644;8.494;2023-05-11T11:06:20;100239.31;;;18.34;90.04
16355;BME280;8287;51.644;8.494;2023-05-11T11:08:57;100235.91;;;18.37;89.64
16355;BME280;8287;51.644;8.494;2023-05-11T11:11:28;100249.44;;;18.44;90.53
16355;BME280;8287;51.644;8.494;2023-05-11T11:13:59;100246.09;;;18.50;90.42
16355;BME280;8287;51.644;8.494;2023-05-11T11:16:28;100240.03;;;18.53;89.71
16355;BME280;8287;51.644;8.494;2023-05-11T11:22:00;100236.97;;;18.55;90.66
16355;BME280;8287;51.644;8.494;2023-05-11T11:24:44;100227.91;;;18.63;90.66
16355;BME280;8287;51.644;8.494;2023-05-11T11:27:11;100232.44;;;18.59;88.10
16355;BME280;8287;51.644;8.494;2023-05-11T11:29:38;100230.31;;;18.45;89.52
16355;BME280;8287;51.644;8.494;2023-05-11T11:32:26;100239.78;;;18.39;90.57
16355;BME280;8287;51.644;8.494;2023-05-11T11:34:53;100241.81;;;18.46;89.22
16355;BME280;8287;51.644;8.494;2023-05-11T11:37:22;100236.28;;;18.58;89.02
16355;BME280;8287;51.644;8.494;2023-05-11T11:39:50;100241.44;;;18.70;89.77
16355;BME280;8287;51.644;8.494;2023-05-11T11:42:35;100236.53;;;18.75;89.69
16355;BME280;8287;51.644;8.494;2023-05-11T11:45:24;100236.94;;;18.77;89.39
16355;BME280;8287;51.644;8.494;2023-05-11T11:48:07;100244.88;;;18.44;90.45
16355;BME280;8287;51.644;8.494;2023-05-11T11:50:35;100235.41;;;18.54;88.64
16355;BME280;8287;51.644;8.494;2023-05-11T11:53:03;100241.31;;;18.63;90.48
16355;BME280;8287;51.644;8.494;2023-05-11T11:55:45;100238.34;;;18.68;89.60
16355;BME280;8287;51.644;8.494;2023-05-11T12:01:29;100234.44;;;18.88;88.18
16355;BME280;8287;51.644;8.494;2023-05-11T12:04:16;100230.13;;;18.83;88.81
16355;BME280;8287;51.644;8.494;2023-05-11T12:06:55;100238.41;;;18.07;89.73
16355;BME280;8287;51.644;8.494;2023-05-11T12:09:24;100242.50;;;18.20;92.21
16355;BME280;8287;51.644;8.494;2023-05-11T12:11:52;100234.66;;;18.53;87.16
16355;BME280;8287;51.644;8.494;2023-05-11T12:14:20;100234.13;;;18.44;86.04
16355;BME280;8287;51.644;8.494;2023-05-11T12:17:03;100235.28;;;18.24;88.80
16355;BME280;8287;51.644;8.494;2023-05-11T12:19:32;100239.19;;;18.49;87.73
16355;BME280;8287;51.644;8.494;2023-05-11T12:21:59;100242.50;;;18.65;86.05
16355;BME280;8287;51.644;8.494;2023-05-11T12:24:27;100240.19;;;18.64;86.83
16355;BME280;8287;51.644;8.494;2023-05-11T12:26:55;100241.84;;;18.72;87.59
16355;BME280;8287;51.644;8.494;2023-05-11T12:29:22;100244.25;;;18.77;86.96
16355;BME280;8287;51.644;8.494;2023-05-11T12:31:49;100247.22;;;18.72;85.99
16355;BME280;8287;51.644;8.494;2023-05-11T12:34:16;100241.63;;;17.75;89.37
16355;BME280;8287;51.644;8.494;2023-05-11T12:36:44;100237.31;;;18.31;90.38
16355;BME280;8287;51.644;8.494;2023-05-11T12:39:16;100240.91;;;18.61;88.93
16355;BME280;8287;51.644;8.494;2023-05-11T12:41:46;100241.38;;;18.44;89.78
16355;BME280;8287;51.644;8.494;2023-05-11T12:44:14;100231.69;;;18.17;88.66
16355;BME280;8287;51.644;8.494;2023-05-11T12:46:41;100229.22;;;17.67;90.45
16355;BME280;8287;51.644;8.494;2023-05-11T12:49:08;100225.13;;;17.73;94.00
16355;BME280;8287;51.644;8.494;2023-05-11T12:51:45;100223.03;;;18.04;94.78
16355;BME280;8287;51.644;8.494;2023-05-11T12:54:24;100221.19;;;18.50;92.64
16355;BME280;8287;51.644;8.494;2023-05-11T12:56:52;100224.50;;;18.66;91.26
16355;BME280;8287;51.644;8.494;2023-05-11T12:59:33;100227.84;;;18.82;89.94
16355;BME280;8287;51.644;8.494;2023-05-11T13:02:07;100222.31;;;18.71;90.08
16355;BME280;8287;51.644;8.494;2023-05-11T13:04:35;100224.03;;;18.60;88.82
16355;BME280;8287;51.644;8.494;2023-05-11T13:07:02;100225.47;;;18.32;91.63
16355;BME280;8287;51.644;8.494;2023-05-11T13:09:29;100221.66;;;18.33;91.02
16355;BME280;8287;51.644;8.494;2023-05-11T13:12:12;100220.56;;;18.15;89.65
16355;BME280;8287;51.644;8.494;2023-05-11T13:17:30;100218.25;;;17.94;91.92